createdAt,value
2022-11-02T00:00:33.553Z,1007.921786032
2022-11-02T00:01:32.431Z,1007.5154205759999
2022-11-02T00:02:32.486Z,1007.921786032
2022-11-02T00:03:32.393Z,1007.718603304
2022-11-02T00:04:32.399Z,1007.718603304
2022-11-02T00:05:32.392Z,1007.718603304
2022-11-02T00:06:32.415Z,1007.5154205759999
2022-11-02T00:07:32.392Z,1007.5154205759999
2022-11-02T00:08:32.392Z,1007.5154205759999
2022-11-02T00:09:32.403Z,1007.413829212
2022-11-02T00:10:32.459Z,1007.5154205759999
2022-11-02T00:11:32.370Z,1007.718603304
2022-11-02T00:12:32.382Z,1007.6170119399999
2022-11-02T00:13:32.413Z,1007.718603304
2022-11-02T00:14:32.402Z,1007.413829212
2022-11-02T00:15:32.363Z,1007.8201946679999
2022-11-02T00:16:32.406Z,1007.413829212
2022-11-02T00:17:32.399Z,1007.5154205759999
2022-11-02T00:18:32.471Z,1007.6170119399999
2022-11-02T00:19:32.358Z,1007.5154205759999
2022-11-02T00:20:32.504Z,1007.5154205759999
2022-11-02T00:21:32.380Z,1007.5154205759999
2022-11-02T00:22:32.390Z,1007.413829212
2022-11-02T00:23:32.391Z,1007.3122378479999
2022-11-02T00:24:32.406Z,1007.5154205759999
2022-11-02T00:25:32.372Z,1007.5154205759999
2022-11-02T00:26:32.421Z,1007.413829212
2022-11-02T00:27:32.379Z,1007.6170119399999
2022-11-02T00:28:32.436Z,1007.5154205759999
2022-11-02T00:29:33.992Z,1007.3122378479999
2022-11-02T00:30:32.419Z,1007.6170119399999
2022-11-02T00:31:32.367Z,1007.5154205759999
2022-11-02T00:32:32.447Z,1007.5154205759999
2022-11-02T00:33:32.407Z,1007.5154205759999
2022-11-02T00:34:32.426Z,1007.3122378479999
2022-11-02T00:35:32.379Z,1007.5154205759999
2022-11-02T00:36:32.450Z,1007.5154205759999
2022-11-02T00:38:32.404Z,1007.3122378479999
2022-11-02T00:39:32.407Z,1007.5154205759999
2022-11-02T00:40:32.406Z,1007.5154205759999
2022-11-02T00:41:32.397Z,1007.3122378479999
2022-11-02T00:42:32.402Z,1007.413829212
2022-11-02T00:43:32.374Z,1007.2106464839999
2022-11-02T00:44:32.405Z,1007.5154205759999
2022-11-02T00:45:32.376Z,1007.413829212
2022-11-02T00:46:32.415Z,1007.3122378479999
2022-11-02T00:47:32.344Z,1007.413829212
2022-11-02T00:48:32.405Z,1007.413829212
2022-11-02T00:49:32.383Z,1007.3122378479999
2022-11-02T00:50:32.374Z,1007.413829212
2022-11-02T00:51:32.363Z,1007.3122378479999
2022-11-02T00:52:32.363Z,1007.6170119399999
2022-11-02T00:53:32.416Z,1007.413829212
2022-11-02T00:54:32.381Z,1007.6170119399999
2022-11-02T00:55:32.385Z,1007.413829212
2022-11-02T00:56:32.368Z,1007.3122378479999
2022-11-02T00:57:32.380Z,1007.3122378479999
2022-11-02T00:58:32.406Z,1007.413829212
2022-11-02T00:59:32.430Z,1007.5154205759999
2022-11-02T01:00:32.361Z,1007.413829212
2022-11-02T01:01:32.585Z,1007.2106464839999
2022-11-02T01:02:32.570Z,1007.413829212
2022-11-02T01:03:32.388Z,1007.6170119399999
2022-11-02T01:04:32.353Z,1007.413829212
2022-11-02T01:05:32.472Z,1007.6170119399999
2022-11-02T01:06:32.365Z,1007.3122378479999
2022-11-02T01:07:32.410Z,1007.6170119399999
2022-11-02T01:08:32.373Z,1007.413829212
2022-11-02T01:09:32.383Z,1007.2106464839999
2022-11-02T01:10:32.383Z,1007.5154205759999
2022-11-02T01:11:32.379Z,1007.5154205759999
2022-11-02T01:12:32.383Z,1007.3122378479999
2022-11-02T01:13:32.406Z,1007.5154205759999
2022-11-02T01:14:32.411Z,1007.5154205759999
2022-11-02T01:15:32.386Z,1007.3122378479999
2022-11-02T01:16:32.442Z,1007.413829212
2022-11-02T01:17:32.400Z,1007.413829212
2022-11-02T01:18:32.387Z,1007.413829212
2022-11-02T01:19:32.451Z,1007.413829212
2022-11-02T01:20:32.357Z,1007.3122378479999
2022-11-02T01:21:32.463Z,1007.5154205759999
2022-11-02T01:22:32.422Z,1007.413829212
2022-11-02T01:23:32.416Z,1007.5154205759999
2022-11-02T01:24:32.364Z,1007.413829212
2022-11-02T01:25:32.373Z,1007.5154205759999
2022-11-02T01:26:32.386Z,1007.413829212
2022-11-02T01:27:32.371Z,1007.5154205759999
2022-11-02T01:28:32.431Z,1007.6170119399999
2022-11-02T01:29:32.402Z,1007.3122378479999
2022-11-02T01:30:32.574Z,1007.413829212
2022-11-02T01:31:32.394Z,1007.413829212
2022-11-02T01:32:32.363Z,1007.3122378479999
2022-11-02T01:33:32.401Z,1007.413829212
2022-11-02T01:34:32.405Z,1007.6170119399999
2022-11-02T01:35:32.367Z,1007.3122378479999
2022-11-02T01:36:32.380Z,1007.5154205759999
2022-11-02T01:37:32.360Z,1007.413829212
2022-11-02T01:38:32.371Z,1007.6170119399999
2022-11-02T01:39:32.421Z,1007.413829212
2022-11-02T01:40:32.471Z,1007.413829212
2022-11-02T01:41:32.459Z,1007.413829212
2022-11-02T01:42:32.601Z,1007.5154205759999
2022-11-02T01:43:32.536Z,1007.3122378479999
2022-11-02T01:44:32.522Z,1007.5154205759999
2022-11-02T01:45:32.485Z,1007.5154205759999
2022-11-02T01:46:32.572Z,1007.3122378479999
2022-11-02T01:47:32.570Z,1007.3122378479999
2022-11-02T01:48:32.544Z,1007.3122378479999
2022-11-02T01:49:32.379Z,1007.413829212
2022-11-02T01:50:32.407Z,1007.413829212
2022-11-02T01:51:32.400Z,1007.5154205759999
2022-11-02T01:52:32.343Z,1007.413829212
2022-11-02T01:53:32.390Z,1007.5154205759999
2022-11-02T01:54:32.417Z,1007.718603304
2022-11-02T01:55:32.429Z,1007.5154205759999
2022-11-02T01:56:32.382Z,1007.3122378479999
2022-11-02T01:57:32.385Z,1007.2106464839999
2022-11-02T01:58:32.382Z,1007.413829212
2022-11-02T01:59:32.396Z,1007.413829212
2022-11-02T02:00:32.428Z,1007.3122378479999
2022-11-02T02:01:32.546Z,1007.5154205759999
2022-11-02T02:02:32.714Z,1007.2106464839999
2022-11-02T02:03:32.402Z,1007.413829212
2022-11-02T02:04:32.394Z,1007.3122378479999
2022-11-02T02:05:32.453Z,1007.2106464839999
2022-11-02T02:06:32.381Z,1007.5154205759999
2022-11-02T02:07:32.389Z,1007.413829212
2022-11-02T02:08:32.390Z,1007.413829212
2022-11-02T02:09:32.410Z,1007.413829212
2022-11-02T02:10:32.364Z,1007.10905512
2022-11-02T02:11:32.381Z,1007.413829212
2022-11-02T02:12:32.366Z,1007.3122378479999
2022-11-02T02:13:32.388Z,1007.3122378479999
2022-11-02T02:14:32.352Z,1007.2106464839999
2022-11-02T02:15:32.370Z,1007.2106464839999
2022-11-02T02:16:33.704Z,1007.3122378479999
2022-11-02T02:17:32.404Z,1007.10905512
2022-11-02T02:18:32.355Z,1007.2106464839999
2022-11-02T02:19:32.384Z,1007.2106464839999
2022-11-02T02:20:32.377Z,1007.2106464839999
2022-11-02T02:21:32.377Z,1007.10905512
2022-11-02T02:22:32.349Z,1007.0074637559999
2022-11-02T02:23:32.386Z,1007.2106464839999
2022-11-02T02:24:32.357Z,1007.2106464839999
2022-11-02T02:25:32.393Z,1007.0074637559999
2022-11-02T02:26:32.384Z,1007.10905512
2022-11-02T02:27:32.395Z,1007.0074637559999
2022-11-02T02:28:32.381Z,1007.2106464839999
2022-11-02T02:29:32.390Z,1007.2106464839999
2022-11-02T02:30:32.375Z,1007.2106464839999
2022-11-02T02:31:32.368Z,1007.10905512
2022-11-02T02:32:32.351Z,1007.0074637559999
2022-11-02T02:33:32.390Z,1007.0074637559999
2022-11-02T02:34:32.356Z,1007.3122378479999
2022-11-02T02:35:32.420Z,1007.10905512
2022-11-02T02:36:32.391Z,1007.0074637559999
2022-11-02T02:37:32.357Z,1007.0074637559999
2022-11-02T02:38:32.368Z,1007.0074637559999
2022-11-02T02:39:32.380Z,1007.2106464839999
2022-11-02T02:40:32.436Z,1007.10905512
2022-11-02T02:41:32.385Z,1007.2106464839999
2022-11-02T02:42:32.371Z,1007.2106464839999
2022-11-02T02:43:32.377Z,1007.10905512
2022-11-02T02:44:32.387Z,1007.2106464839999
2022-11-02T02:45:32.372Z,1007.10905512
2022-11-02T02:46:34.574Z,1007.10905512
2022-11-02T02:47:32.368Z,1007.2106464839999
2022-11-02T02:48:32.353Z,1007.2106464839999
2022-11-02T02:49:32.381Z,1007.10905512
2022-11-02T02:50:32.344Z,1007.2106464839999
2022-11-02T02:51:32.397Z,1007.2106464839999
2022-11-02T02:52:32.375Z,1007.10905512
2022-11-02T02:53:32.414Z,1007.2106464839999
2022-11-02T02:54:32.362Z,1007.2106464839999
2022-11-02T02:55:32.359Z,1007.10905512
2022-11-02T02:56:32.325Z,1007.10905512
2022-11-02T02:57:32.383Z,1007.2106464839999
2022-11-02T02:58:32.355Z,1006.9397361800001
2022-11-02T02:59:32.370Z,1007.2106464839999
2022-11-02T03:00:32.346Z,1007.2106464839999
2022-11-02T03:01:32.468Z,1007.10905512
2022-11-02T03:02:32.497Z,1007.2106464839999
2022-11-02T03:03:32.379Z,1007.2106464839999
2022-11-02T03:04:32.347Z,1007.0074637559999
2022-11-02T03:05:32.340Z,1007.2106464839999
2022-11-02T03:06:32.374Z,1007.2106464839999
2022-11-02T03:07:34.065Z,1007.2106464839999
2022-11-02T03:08:32.351Z,1007.0074637559999
2022-11-02T03:09:32.380Z,1006.9397361800001
2022-11-02T03:10:32.534Z,1007.10905512
2022-11-02T03:11:32.402Z,1007.2106464839999
2022-11-02T03:12:32.348Z,1007.0074637559999
2022-11-02T03:13:32.666Z,1007.2106464839999
2022-11-02T03:14:32.517Z,1007.2106464839999
2022-11-02T03:15:32.414Z,1007.2106464839999
2022-11-02T03:16:32.484Z,1007.2106464839999
2022-11-02T03:17:32.505Z,1007.10905512
2022-11-02T03:18:32.493Z,1007.0074637559999
2022-11-02T03:19:32.520Z,1006.9397361800001
2022-11-02T03:20:32.461Z,1007.2106464839999
2022-11-02T03:21:32.486Z,1007.413829212
2022-11-02T03:22:32.503Z,1007.10905512
2022-11-02T03:23:32.548Z,1007.2106464839999
2022-11-02T03:24:32.363Z,1007.2106464839999
2022-11-02T03:25:32.488Z,1007.10905512
2022-11-02T03:26:32.566Z,1007.2106464839999
2022-11-02T03:27:32.502Z,1007.3122378479999
2022-11-02T03:28:32.402Z,1007.3122378479999
2022-11-02T03:29:32.504Z,1007.3122378479999
2022-11-02T03:30:32.542Z,1007.2106464839999
2022-11-02T03:31:32.428Z,1007.2106464839999
2022-11-02T03:32:32.346Z,1007.2106464839999
2022-11-02T03:33:32.428Z,1007.2106464839999
2022-11-02T03:34:32.353Z,1007.2106464839999
2022-11-02T03:35:32.371Z,1007.3122378479999
2022-11-02T03:36:32.336Z,1007.413829212
2022-11-02T03:37:32.358Z,1007.2106464839999
2022-11-02T03:38:32.402Z,1007.2106464839999
2022-11-02T03:39:32.368Z,1007.3122378479999
2022-11-02T03:40:32.458Z,1007.413829212
2022-11-02T03:41:32.489Z,1007.2106464839999
2022-11-02T03:42:32.516Z,1007.3122378479999
2022-11-02T03:43:32.481Z,1007.3122378479999
2022-11-02T03:44:32.476Z,1007.10905512
2022-11-02T03:45:32.391Z,1007.3122378479999
2022-11-02T03:46:32.421Z,1007.3122378479999
2022-11-02T03:47:32.375Z,1007.3122378479999
2022-11-02T03:48:32.358Z,1007.3122378479999
2022-11-02T03:49:32.376Z,1007.413829212
2022-11-02T03:50:32.358Z,1007.5154205759999
2022-11-02T03:51:32.496Z,1007.2106464839999
2022-11-02T03:52:32.402Z,1007.3122378479999
2022-11-02T03:53:32.405Z,1007.2106464839999
2022-11-02T03:54:32.330Z,1007.0074637559999
2022-11-02T03:55:32.368Z,1007.3122378479999
2022-11-02T03:56:32.318Z,1007.3122378479999
2022-11-02T03:57:32.346Z,1007.3122378479999
2022-11-02T03:58:32.539Z,1007.10905512
2022-11-02T03:59:32.365Z,1007.3122378479999
2022-11-02T04:00:32.354Z,1007.2106464839999
2022-11-02T04:01:32.460Z,1007.2106464839999
2022-11-02T04:02:32.520Z,1007.3122378479999
2022-11-02T04:03:32.366Z,1007.3122378479999
2022-11-02T04:04:32.408Z,1007.5154205759999
2022-11-02T04:05:32.372Z,1007.2106464839999
2022-11-02T04:06:32.365Z,1007.2106464839999
2022-11-02T04:07:32.390Z,1007.3122378479999
2022-11-02T04:08:32.315Z,1007.2106464839999
2022-11-02T04:09:32.366Z,1007.10905512
2022-11-02T04:10:32.347Z,1007.2106464839999
2022-11-02T04:11:32.391Z,1007.3122378479999
2022-11-02T04:12:32.346Z,1007.2106464839999
2022-11-02T04:13:32.369Z,1007.413829212
2022-11-02T04:14:32.380Z,1007.0074637559999
2022-11-02T04:15:32.354Z,1007.10905512
2022-11-02T04:16:32.331Z,1007.2106464839999
2022-11-02T04:17:32.392Z,1007.3122378479999
2022-11-02T04:18:32.357Z,1007.3122378479999
2022-11-02T04:19:32.402Z,1007.2106464839999
2022-11-02T04:20:32.340Z,1007.3122378479999
2022-11-02T04:21:32.345Z,1007.0074637559999
2022-11-02T04:22:32.339Z,1007.2106464839999
2022-11-02T04:23:32.379Z,1007.5154205759999
2022-11-02T04:24:32.333Z,1007.3122378479999
2022-11-02T04:25:32.403Z,1007.3122378479999
2022-11-02T04:26:32.365Z,1007.413829212
2022-11-02T04:27:32.379Z,1007.2106464839999
2022-11-02T04:28:32.355Z,1007.2106464839999
2022-11-02T04:29:32.391Z,1007.2106464839999
2022-11-02T04:30:32.341Z,1007.2106464839999
2022-11-02T04:31:32.382Z,1007.2106464839999
2022-11-02T04:32:32.332Z,1007.2106464839999
2022-11-02T04:33:32.368Z,1007.3122378479999
2022-11-02T04:34:32.347Z,1007.2106464839999
2022-11-02T04:35:32.348Z,1007.2106464839999
2022-11-02T04:36:32.361Z,1007.10905512
2022-11-02T04:37:32.343Z,1007.2106464839999
2022-11-02T04:38:32.394Z,1007.2106464839999
2022-11-02T04:39:32.362Z,1007.3122378479999
2022-11-02T04:40:32.332Z,1007.2106464839999
2022-11-02T04:41:32.371Z,1007.2106464839999
2022-11-02T04:42:32.367Z,1007.3122378479999
2022-11-02T04:43:32.412Z,1007.3122378479999
2022-11-02T04:44:32.325Z,1007.3122378479999
2022-11-02T04:45:32.348Z,1007.2106464839999
2022-11-02T04:46:32.358Z,1007.10905512
2022-11-02T04:47:32.349Z,1007.413829212
2022-11-02T04:48:32.349Z,1007.2106464839999
2022-11-02T04:49:32.368Z,1007.413829212
2022-11-02T04:50:32.367Z,1007.413829212
2022-11-02T04:51:32.348Z,1007.2106464839999
2022-11-02T04:52:32.329Z,1007.2106464839999
2022-11-02T04:53:32.350Z,1007.0074637559999
2022-11-02T04:54:32.350Z,1007.10905512
2022-11-02T04:55:32.360Z,1007.3122378479999
2022-11-02T04:56:32.335Z,1007.2106464839999
2022-11-02T04:57:32.397Z,1007.3122378479999
2022-11-02T04:58:32.372Z,1007.2106464839999
2022-11-02T04:59:32.366Z,1007.3122378479999
2022-11-02T05:00:32.331Z,1007.10905512
2022-11-02T05:01:32.458Z,1007.3122378479999
2022-11-02T05:02:32.454Z,1007.2106464839999
2022-11-02T05:03:32.379Z,1007.2106464839999
2022-11-02T05:04:32.357Z,1007.3122378479999
2022-11-02T05:05:32.368Z,1007.2106464839999
2022-11-02T05:06:32.345Z,1007.413829212
2022-11-02T05:07:32.368Z,1007.5154205759999
2022-11-02T05:08:32.328Z,1007.5154205759999
2022-11-02T05:09:32.348Z,1007.413829212
2022-11-02T05:10:32.363Z,1007.413829212
2022-11-02T05:11:32.359Z,1007.413829212
2022-11-02T05:12:32.442Z,1007.413829212
2022-11-02T05:13:32.352Z,1007.5154205759999
2022-11-02T05:14:32.352Z,1007.413829212
2022-11-02T05:15:32.364Z,1007.5154205759999
2022-11-02T05:16:32.343Z,1007.5154205759999
2022-11-02T05:17:32.383Z,1007.5154205759999
2022-11-02T05:18:32.366Z,1007.413829212
2022-11-02T05:19:32.356Z,1007.5154205759999
2022-11-02T05:20:32.315Z,1007.6170119399999
2022-11-02T05:21:32.350Z,1007.5154205759999
2022-11-02T05:22:32.387Z,1007.6170119399999
2022-11-02T05:23:32.344Z,1007.6170119399999
2022-11-02T05:24:32.349Z,1007.3122378479999
2022-11-02T05:25:32.497Z,1007.413829212
2022-11-02T05:26:32.368Z,1007.5154205759999
2022-11-02T05:27:32.348Z,1007.413829212
2022-11-02T05:28:32.324Z,1007.6170119399999
2022-11-02T05:29:32.352Z,1007.5154205759999
2022-11-02T05:30:32.359Z,1007.2106464839999
2022-11-02T05:31:32.633Z,1007.5154205759999
2022-11-02T05:32:32.337Z,1007.3122378479999
2022-11-02T05:33:32.366Z,1007.413829212
2022-11-02T05:34:32.343Z,1007.2106464839999
2022-11-02T05:35:32.388Z,1007.10905512
2022-11-02T05:36:32.339Z,1007.3122378479999
2022-11-02T05:37:32.686Z,1007.3122378479999
2022-11-02T05:38:32.428Z,1007.3122378479999
2022-11-02T05:39:32.375Z,1007.2106464839999
2022-11-02T05:40:32.329Z,1007.2106464839999
2022-11-02T05:41:32.378Z,1007.2106464839999
2022-11-02T05:42:32.362Z,1007.413829212
2022-11-02T05:43:32.360Z,1007.413829212
2022-11-02T05:44:32.346Z,1007.3122378479999
2022-11-02T05:45:32.344Z,1007.3122378479999
2022-11-02T05:46:32.377Z,1007.2106464839999
2022-11-02T05:47:32.333Z,1007.3122378479999
2022-11-02T05:48:32.336Z,1007.3122378479999
2022-11-02T05:49:32.346Z,1007.413829212
2022-11-02T05:50:32.348Z,1007.413829212
2022-11-02T05:51:32.409Z,1007.413829212
2022-11-02T05:52:32.326Z,1007.5154205759999
2022-11-02T05:53:32.355Z,1007.3122378479999
2022-11-02T05:54:32.312Z,1007.5154205759999
2022-11-02T05:55:32.357Z,1007.2106464839999
2022-11-02T05:56:32.364Z,1007.413829212
2022-11-02T05:57:32.368Z,1007.413829212
2022-11-02T05:58:32.371Z,1007.10905512
2022-11-02T05:59:32.358Z,1007.413829212
2022-11-02T06:00:32.323Z,1007.3122378479999
2022-11-02T06:01:32.410Z,1007.413829212
2022-11-02T06:02:32.363Z,1007.3122378479999
2022-11-02T06:03:32.353Z,1007.5154205759999
2022-11-02T06:04:32.320Z,1007.413829212
2022-11-02T06:05:32.462Z,1007.3122378479999
2022-11-02T06:06:32.415Z,1007.413829212
2022-11-02T06:07:32.365Z,1007.5154205759999
2022-11-02T06:08:32.302Z,1007.413829212
2022-11-02T06:09:32.365Z,1007.6170119399999
2022-11-02T06:10:32.377Z,1007.718603304
2022-11-02T06:11:32.358Z,1007.6170119399999
2022-11-02T06:12:32.351Z,1007.718603304
2022-11-02T06:13:32.359Z,1007.6170119399999
2022-11-02T06:14:32.424Z,1007.718603304
2022-11-02T06:15:32.411Z,1007.8201946679999
2022-11-02T06:16:32.332Z,1007.5154205759999
2022-11-02T06:17:32.342Z,1007.6170119399999
2022-11-02T06:18:32.445Z,1007.718603304
2022-11-02T06:19:32.341Z,1007.718603304
2022-11-02T06:20:32.315Z,1007.6170119399999
2022-11-02T06:21:32.380Z,1007.718603304
2022-11-02T06:22:32.399Z,1007.6170119399999
2022-11-02T06:23:32.407Z,1007.5154205759999
2022-11-02T06:24:32.335Z,1007.8201946679999
2022-11-02T06:25:32.344Z,1007.718603304
2022-11-02T06:26:32.315Z,1007.718603304
2022-11-02T06:27:32.349Z,1007.718603304
2022-11-02T06:28:32.347Z,1007.5154205759999
2022-11-02T06:29:32.378Z,1007.718603304
2022-11-02T06:30:32.452Z,1007.718603304
2022-11-02T06:31:32.367Z,1007.718603304
2022-11-02T06:32:32.384Z,1007.8201946679999
2022-11-02T06:33:32.351Z,1007.718603304
2022-11-02T06:34:32.332Z,1007.718603304
2022-11-02T06:35:32.349Z,1007.5154205759999
2022-11-02T06:36:32.314Z,1007.718603304
2022-11-02T06:37:32.415Z,1007.5154205759999
2022-11-02T06:38:32.416Z,1007.6170119399999
2022-11-02T06:39:32.431Z,1007.6170119399999
2022-11-02T06:40:32.331Z,1007.718603304
2022-11-02T06:41:32.348Z,1007.718603304
2022-11-02T06:42:36.972Z,1007.718603304
2022-11-02T06:43:32.355Z,1007.718603304
2022-11-02T06:44:32.300Z,1007.413829212
2022-11-02T06:45:32.362Z,1007.6170119399999
2022-11-02T06:46:32.500Z,1007.718603304
2022-11-02T06:47:32.357Z,1007.718603304
2022-11-02T06:48:35.146Z,1007.8201946679999
2022-11-02T06:49:32.349Z,1007.6170119399999
2022-11-02T06:50:32.361Z,1007.718603304
2022-11-02T06:51:32.348Z,1007.718603304
2022-11-02T06:52:32.361Z,1007.6170119399999
2022-11-02T06:53:32.348Z,1007.921786032
2022-11-02T06:54:32.356Z,1007.718603304
2022-11-02T06:55:32.346Z,1008.1249687599999
2022-11-02T06:56:32.351Z,1007.8201946679999
2022-11-02T06:57:32.348Z,1007.8201946679999
2022-11-02T06:58:32.347Z,1007.3122378479999
2022-11-02T06:59:32.330Z,1007.10905512
2022-11-02T07:00:32.717Z,1007.2106464839999
2022-11-02T07:01:32.541Z,1006.9397361800001
2022-11-02T07:02:32.414Z,1007.2106464839999
2022-11-02T07:03:32.335Z,1007.10905512
2022-11-02T07:04:32.345Z,1007.0074637559999
2022-11-02T07:05:32.438Z,1006.9397361800001
2022-11-02T07:06:32.334Z,1007.0074637559999
2022-11-02T07:07:32.358Z,1007.0074637559999
2022-11-02T07:08:32.343Z,1007.0074637559999
2022-11-02T07:09:32.321Z,1007.3122378479999
2022-11-02T07:10:32.347Z,1007.10905512
2022-11-02T07:11:32.364Z,1007.10905512
2022-11-02T07:12:32.338Z,1007.10905512
2022-11-02T07:13:32.332Z,1007.10905512
2022-11-02T07:14:32.355Z,1007.0074637559999
2022-11-02T07:15:32.369Z,1007.0074637559999
2022-11-02T07:16:32.343Z,1006.9397361800001
2022-11-02T07:17:32.503Z,1007.6170119399999
2022-11-02T07:18:32.338Z,1007.718603304
2022-11-02T07:19:32.363Z,1007.921786032
2022-11-02T07:20:32.375Z,1007.921786032
2022-11-02T07:21:32.314Z,1007.6170119399999
2022-11-02T07:22:32.364Z,1007.8201946679999
2022-11-02T07:23:32.402Z,1007.6170119399999
2022-11-02T07:24:32.342Z,1007.921786032
2022-11-02T07:25:32.311Z,1007.718603304
2022-11-02T07:26:32.463Z,1007.6170119399999
2022-11-02T07:27:32.366Z,1007.6170119399999
2022-11-02T07:28:32.333Z,1007.5154205759999
2022-11-02T07:29:32.354Z,1007.413829212
2022-11-02T07:30:32.329Z,1007.5154205759999
2022-11-02T07:31:32.491Z,1007.413829212
2022-11-02T07:32:32.355Z,1007.413829212
2022-11-02T07:33:32.449Z,1007.413829212
2022-11-02T07:34:32.380Z,1007.5154205759999
2022-11-02T07:35:32.391Z,1007.6170119399999
2022-11-02T07:36:32.350Z,1007.413829212
2022-11-02T07:37:32.341Z,1007.3122378479999
2022-11-02T07:38:32.373Z,1007.6170119399999
2022-11-02T07:39:32.338Z,1007.6170119399999
2022-11-02T07:40:32.324Z,1007.413829212
2022-11-02T07:41:32.513Z,1007.5154205759999
2022-11-02T07:42:32.364Z,1007.6170119399999
2022-11-02T07:43:32.326Z,1007.413829212
2022-11-02T07:44:32.326Z,1007.413829212
2022-11-02T07:45:32.327Z,1007.6170119399999
2022-11-02T07:46:32.381Z,1007.5154205759999
2022-11-02T07:47:32.344Z,1007.413829212
2022-11-02T07:48:32.347Z,1007.5154205759999
2022-11-02T07:49:32.328Z,1007.6170119399999
2022-11-02T07:50:32.375Z,1007.5154205759999
2022-11-02T07:51:32.427Z,1007.413829212
2022-11-02T07:52:32.349Z,1007.5154205759999
2022-11-02T07:53:32.327Z,1007.6170119399999
2022-11-02T07:54:32.343Z,1007.3122378479999
2022-11-02T07:55:32.336Z,1007.5154205759999
2022-11-02T07:56:32.385Z,1007.2106464839999
2022-11-02T07:57:32.368Z,1007.413829212
2022-11-02T07:58:32.319Z,1007.6170119399999
2022-11-02T07:59:32.279Z,1007.413829212
2022-11-02T08:00:32.327Z,1007.5154205759999
2022-11-02T08:01:32.398Z,1007.5154205759999
2022-11-02T08:02:32.404Z,1007.5154205759999
2022-11-02T08:03:32.338Z,1007.718603304
2022-11-02T08:04:32.336Z,1007.6170119399999
2022-11-02T08:05:32.300Z,1007.413829212
2022-11-02T08:06:32.445Z,1007.6170119399999
2022-11-02T08:07:32.339Z,1007.413829212
2022-11-02T08:08:32.325Z,1007.5154205759999
2022-11-02T08:09:32.314Z,1007.8201946679999
2022-11-02T08:10:35.476Z,1007.6170119399999
2022-11-02T08:11:32.382Z,1007.413829212
2022-11-02T08:12:32.312Z,1007.718603304
2022-11-02T08:13:33.039Z,1007.8201946679999
2022-11-02T08:14:32.354Z,1007.413829212
2022-11-02T08:15:32.342Z,1007.6170119399999
2022-11-02T08:16:32.349Z,1007.6170119399999
2022-11-02T08:17:32.324Z,1007.6170119399999
2022-11-02T08:18:32.305Z,1007.413829212
2022-11-02T08:19:32.351Z,1007.413829212
2022-11-02T08:20:32.432Z,1007.718603304
2022-11-02T08:21:32.314Z,1007.718603304
2022-11-02T08:22:32.323Z,1007.413829212
2022-11-02T08:23:32.353Z,1007.5154205759999
2022-11-02T08:24:32.342Z,1007.413829212
2022-11-02T08:25:32.318Z,1007.6170119399999
2022-11-02T08:26:32.306Z,1007.5154205759999
2022-11-02T08:27:32.347Z,1007.3122378479999
2022-11-02T08:28:32.347Z,1007.5154205759999
2022-11-02T08:29:32.312Z,1007.5154205759999
2022-11-02T08:30:32.313Z,1007.5154205759999
2022-11-02T08:31:32.367Z,1007.5154205759999
2022-11-02T08:32:32.329Z,1007.3122378479999
2022-11-02T08:33:32.315Z,1007.413829212
2022-11-02T08:34:32.304Z,1007.718603304
2022-11-02T08:35:32.332Z,1007.10905512
2022-11-02T08:36:32.336Z,1007.5154205759999
2022-11-02T08:37:32.298Z,1007.413829212
2022-11-02T08:38:32.249Z,1007.3122378479999
2022-11-02T08:39:32.349Z,1007.413829212
2022-11-02T08:40:32.366Z,1007.413829212
2022-11-02T08:41:32.307Z,1007.3122378479999
2022-11-02T08:42:32.266Z,1007.413829212
2022-11-02T08:43:32.339Z,1007.2106464839999
2022-11-02T08:44:32.329Z,1007.3122378479999
2022-11-02T08:46:00.675Z,1007.413829212
2022-11-02T08:46:32.359Z,1007.3122378479999
2022-11-02T08:47:32.300Z,1007.3122378479999
2022-11-02T08:48:32.343Z,1007.10905512
2022-11-02T08:49:32.340Z,1007.413829212
2022-11-02T08:50:32.251Z,1007.3122378479999
2022-11-02T08:51:32.306Z,1007.2106464839999
2022-11-02T08:52:34.645Z,1007.3122378479999
2022-11-02T08:53:32.347Z,1007.5154205759999
2022-11-02T08:54:32.281Z,1007.3122378479999
2022-11-02T08:55:32.363Z,1007.3122378479999
2022-11-02T08:56:32.349Z,1007.3122378479999
2022-11-02T08:57:32.347Z,1007.3122378479999
2022-11-02T08:58:32.247Z,1007.2106464839999
2022-11-02T08:59:32.307Z,1007.10905512
2022-11-02T09:00:32.334Z,1007.3122378479999
2022-11-02T09:01:32.409Z,1007.3122378479999
2022-11-02T09:02:32.335Z,1007.0074637559999
2022-11-02T09:03:32.298Z,1007.3122378479999
2022-11-02T09:04:32.321Z,1007.413829212
2022-11-02T09:05:32.354Z,1007.10905512
2022-11-02T09:06:32.305Z,1007.3122378479999
2022-11-02T09:07:32.308Z,1007.10905512
2022-11-02T09:08:32.497Z,1007.2106464839999
2022-11-02T09:09:32.344Z,1007.2106464839999
2022-11-02T09:10:32.248Z,1007.10905512
2022-11-02T09:11:32.337Z,1007.413829212
2022-11-02T09:12:32.338Z,1007.10905512
2022-11-02T09:13:32.509Z,1007.2106464839999
2022-11-02T09:14:32.242Z,1007.0074637559999
2022-11-02T09:15:32.361Z,1007.0074637559999
2022-11-02T09:16:34.383Z,1007.10905512
2022-11-02T09:17:32.355Z,1007.10905512
2022-11-02T09:18:32.248Z,1007.2106464839999
2022-11-02T09:19:32.346Z,1007.10905512
2022-11-02T09:20:32.316Z,1007.10905512
2022-11-02T09:21:32.335Z,1006.9397361800001
2022-11-02T09:22:32.248Z,1007.0074637559999
2022-11-02T09:23:32.450Z,1007.3122378479999